sensor_id;sensor_type;location;lat;lon;timestamp;pressure;altitude;pressure_sealevel;temperature;humidity
16194;BME280;8204;53.582;10.080;2022-08-07T08:18:39;102266.59;;;18.57;100.00
16194;BME280;8204;53.582;10.080;2022-08-07T08:21:06;102247.31;;;18.63;100.00
16194;BME280;8204;53.582;10.080;2022-08-07T08:23:54;102281.47;;;18.66;100.00
16194;BME280;8204;53.582;10.080;2022-08-07T08:26:38;102277.81;;;18.67;100.00
16194;BME280;8204;53.582;10.080;2022-08-07T08:29:23;102275.31;;;18.74;100.00
16194;BME280;8204;53.582;10.080;2022-08-07T08:31:51;102266.47;;;18.81;100.00
16194;BME280;8204;53.582;10.080;2022-08-07T08:34:21;102264.75;;;18.88;100.00
16194;BME280;8204;53.582;10.080;2022-08-07T08:36:49;102281.63;;;19.03;100.00
16194;BME280;8204;53.582;10.080;2022-08-07T08:39:17;102277.78;;;19.05;100.00
16194;BME280;8204;53.582;10.080;2022-08-07T08:41:48;102293.22;;;19.10;100.00
16194;BME280;8204;53.582;10.080;2022-08-07T08:44:18;102307.63;;;19.15;100.00
16194;BME280;8204;53.582;10.080;2022-08-07T08:46:55;102314.06;;;19.21;100.00
16194;BME280;8204;53.582;10.080;2022-08-07T08:49:32;102289.25;;;19.28;100.00
16194;BME280;8204;53.582;10.080;2022-08-07T08:52:07;102304.03;;;19.31;100.00
16194;BME280;8204;53.582;10.080;2022-08-07T08:54:39;102302.50;;;19.36;100.00
16194;BME280;8204;53.582;10.080;2022-08-07T08:57:12;102334.53;;;19.43;100.00
16194;BME280;8204;53.582;10.080;2022-08-07T08:59:44;102338.00;;;19.43;100.00
16194;BME280;8204;53.582;10.080;2022-08-07T09:02:17;102344.47;;;19.49;100.00
16194;BME280;8204;53.582;10.080;2022-08-07T09:04:56;102332.25;;;19.54;100.00
16194;BME280;8204;53.582;10.080;2022-08-07T09:07:30;102333.03;;;19.63;100.00
16194;BME280;8204;53.582;10.080;2022-08-07T09:10:02;102326.16;;;19.68;100.00
16194;BME280;8204;53.582;10.080;2022-08-07T09:12:49;102356.75;;;19.72;100.00
16194;BME280;8204;53.582;10.080;2022-08-07T09:15:29;102333.72;;;19.79;100.00
16194;BME280;8204;53.582;10.080;2022-08-07T09:18:22;102335.97;;;19.90;100.00
16194;BME280;8204;53.582;10.080;2022-08-07T09:21:00;102355.09;;;19.93;100.00
16194;BME280;8204;53.582;10.080;2022-08-07T09:23:33;102352.44;;;19.93;100.00
16194;BME280;8204;53.582;10.080;2022-08-07T09:26:13;102350.59;;;19.94;100.00
16194;BME280;8204;53.582;10.080;2022-08-07T09:28:42;102355.72;;;19.95;100.00
16194;BME280;8204;53.582;10.080;2022-08-07T09:31:18;102341.41;;;19.96;100.00
16194;BME280;8204;53.582;10.080;2022-08-07T09:33:58;102350.31;;;20.03;100.00
16194;BME280;8204;53.582;10.080;2022-08-07T09:36:34;102355.47;;;20.05;100.00
16194;BME280;8204;53.582;10.080;2022-08-07T09:39:15;102348.97;;;20.07;100.00
16194;BME280;8204;53.582;10.080;2022-08-07T09:41:50;102353.19;;;20.16;100.00
16194;BME280;8204;53.582;10.080;2022-08-07T09:44:28;102341.47;;;20.11;100.00
16194;BME280;8204;53.582;10.080;2022-08-07T09:47:06;102346.06;;;20.17;100.00
16194;BME280;8204;53.582;10.080;2022-08-07T09:49:47;102347.53;;;20.19;100.00
16194;BME280;8204;53.582;10.080;2022-08-07T09:52:25;102341.19;;;20.20;100.00
16194;BME280;8204;53.582;10.080;2022-08-07T09:54:57;102342.13;;;20.27;100.00
16194;BME280;8204;53.582;10.080;2022-08-07T10:00:26;102327.06;;;20.34;100.00
16194;BME280;8204;53.582;10.080;2022-08-07T10:03:12;102333.84;;;20.37;100.00
16194;BME280;8204;53.582;10.080;2022-08-07T10:09:06;102329.91;;;20.47;100.00
16194;BME280;8204;53.582;10.080;2022-08-07T10:11:44;102341.66;;;20.52;100.00
16194;BME280;8204;53.582;10.080;2022-08-07T10:14:30;102332.75;;;20.60;100.00
16194;BME280;8204;53.582;10.080;2022-08-07T10:17:11;102328.03;;;20.62;100.00
16194;BME280;8204;53.582;10.080;2022-08-07T10:19:53;102328.88;;;20.62;100.00
16194;BME280;8204;53.582;10.080;2022-08-07T10:22:32;102325.47;;;20.68;100.00
16194;BME280;8204;53.582;10.080;2022-08-07T10:25:15;102329.22;;;20.74;100.00
16194;BME280;8204;53.582;10.080;2022-08-07T10:28:26;102326.50;;;20.82;100.00
16194;BME280;8204;53.582;10.080;2022-08-07T10:31:06;102328.97;;;20.83;100.00
16194;BME280;8204;53.582;10.080;2022-08-07T10:33:51;102320.88;;;20.91;100.00
16194;BME280;8204;53.582;10.080;2022-08-07T10:36:30;102311.84;;;20.92;100.00
16194;BME280;8204;53.582;10.080;2022-08-07T10:39:04;102309.91;;;21.01;100.00
16194;BME280;8204;53.582;10.080;2022-08-07T10:41:39;102302.59;;;21.09;100.00
16194;BME280;8204;53.582;10.080;2022-08-07T10:44:11;102303.59;;;21.23;100.00
16194;BME280;8204;53.582;10.080;2022-08-07T10:46:48;102312.03;;;21.26;100.00
16194;BME280;8204;53.582;10.080;2022-08-07T10:49:22;102301.25;;;21.34;100.00
16194;BME280;8204;53.582;10.080;2022-08-07T10:51:55;102308.69;;;21.38;100.00
16194;BME280;8204;53.582;10.080;2022-08-07T10:54:31;102302.19;;;21.47;100.00
16194;BME280;8204;53.582;10.080;2022-08-07T10:57:09;102302.19;;;21.47;100.00
16194;BME280;8204;53.582;10.080;2022-08-07T10:59:50;102299.03;;;21.58;100.00
16194;BME280;8204;53.582;10.080;2022-08-07T11:02:22;102301.56;;;21.66;100.00
16194;BME280;8204;53.582;10.080;2022-08-07T11:05:01;102298.13;;;21.72;100.00
16194;BME280;8204;53.582;10.080;2022-08-07T11:07:35;102300.44;;;21.82;100.00
16194;BME280;8204;53.582;10.080;2022-08-07T11:10:07;102302.34;;;21.88;100.00
16194;BME280;8204;53.582;10.080;2022-08-07T11:12:45;102296.06;;;21.95;100.00
16194;BME280;8204;53.582;10.080;2022-08-07T11:15:20;102284.59;;;22.01;100.00
16194;BME280;8204;53.582;10.080;2022-08-07T11:17:49;102300.41;;;22.02;100.00
16194;BME280;8204;53.582;10.080;2022-08-07T11:20:20;102304.09;;;22.02;100.00
16194;BME280;8204;53.582;10.080;2022-08-07T11:22:51;102296.06;;;21.95;100.00
16194;BME280;8204;53.582;10.080;2022-08-07T11:25:24;102293.91;;;21.84;100.00
16194;BME280;8204;53.582;10.080;2022-08-07T11:28:00;102283.66;;;21.88;100.00
16194;BME280;8204;53.582;10.080;2022-08-07T11:30:34;102292.75;;;21.93;100.00
16194;BME280;8204;53.582;10.080;2022-08-07T11:33:07;102284.19;;;22.04;100.00
16194;BME280;8204;53.582;10.080;2022-08-07T11:35:43;102292.28;;;22.17;99.73
16194;BME280;8204;53.582;10.080;2022-08-07T11:38:14;102278.66;;;22.33;100.00
16194;BME280;8204;53.582;10.080;2022-08-07T11:40:50;102297.03;;;22.49;96.20
16194;BME280;8204;53.582;10.080;2022-08-07T11:43:24;102282.47;;;22.58;92.59
16194;BME280;8204;53.582;10.080;2022-08-07T11:46:13;102281.31;;;22.79;95.21
16194;BME280;8204;53.582;10.080;2022-08-07T11:48:58;102276.84;;;22.99;96.07
16194;BME280;8204;53.582;10.080;2022-08-07T11:51:36;102286.78;;;23.05;92.79
16194;BME280;8204;53.582;10.080;2022-08-07T11:54:14;102277.72;;;23.06;90.44
16194;BME280;8204;53.582;10.080;2022-08-07T11:56:55;102284.75;;;23.07;92.57
16194;BME280;8204;53.582;10.080;2022-08-07T11:59:36;102275.47;;;23.10;91.85
16194;BME280;8204;53.582;10.080;2022-08-07T12:02:16;102275.91;;;23.13;89.04
16194;BME280;8204;53.582;10.080;2022-08-07T12:05:01;102274.91;;;23.27;88.14
16194;BME280;8204;53.582;10.080;2022-08-07T12:07:36;102270.34;;;23.34;89.52
16194;BME280;8204;53.582;10.080;2022-08-07T12:10:08;102268.50;;;23.41;91.74
16194;BME280;8204;53.582;10.080;2022-08-07T12:12:42;102253.09;;;23.37;92.14
16194;BME280;8204;53.582;10.080;2022-08-07T12:15:15;102252.84;;;23.32;93.09
16194;BME280;8204;53.582;10.080;2022-08-07T12:17:47;102254.91;;;23.23;92.22
16194;BME280;8204;53.582;10.080;2022-08-07T12:20:21;102261.28;;;23.22;90.22
16194;BME280;8204;53.582;10.080;2022-08-07T12:23:00;102257.16;;;23.20;91.69
16194;BME280;8204;53.582;10.080;2022-08-07T12:25:33;102242.78;;;23.27;92.36
16194;BME280;8204;53.582;10.080;2022-08-07T12:28:24;102238.03;;;23.29;92.21
16194;BME280;8204;53.582;10.080;2022-08-07T12:30:57;102237.00;;;23.30;89.75
16194;BME280;8204;53.582;10.080;2022-08-07T12:33:27;102241.53;;;23.49;92.11
16194;BME280;8204;53.582;10.080;2022-08-07T12:35:57;102232.09;;;23.66;90.08
16194;BME280;8204;53.582;10.080;2022-08-07T12:38:25;102234.13;;;23.90;91.11
16194;BME280;8204;53.582;10.080;2022-08-07T12:40:53;102234.06;;;24.16;89.00
16194;BME280;8204;53.582;10.080;2022-08-07T12:43:22;102240.34;;;24.40;88.48
16194;BME280;8204;53.582;10.080;2022-08-07T12:46:12;102235.59;;;24.49;86.89
16194;BME280;8204;53.582;10.080;2022-08-07T12:48:46;102229.94;;;24.70;87.14
16194;BME280;8204;53.582;10.080;2022-08-07T12:51:18;102230.09;;;24.81;87.72
16194;BME280;8204;53.582;10.080;2022-08-07T12:53:51;102234.72;;;24.61;83.30
16194;BME280;8204;53.582;10.080;2022-08-07T12:56:30;102243.44;;;24.50;84.17
16194;BME280;8204;53.582;10.080;2022-08-07T12:58:59;102234.38;;;24.51;83.45
16194;BME280;8204;53.582;10.080;2022-08-07T13:01:41;102224.88;;;24.55;84.22
16194;BME280;8204;53.582;10.080;2022-08-07T13:04:27;102232.84;;;24.62;85.33
16194;BME280;8204;53.582;10.080;2022-08-07T13:07:05;102245.06;;;24.58;84.02
16194;BME280;8204;53.582;10.080;2022-08-07T13:09:47;102216.78;;;24.62;86.06
16194;BME280;8204;53.582;10.080;2022-08-07T13:12:21;102228.97;;;24.58;82.29
16194;BME280;8204;53.582;10.080;2022-08-07T13:14:59;102227.72;;;24.60;85.25
16194;BME280;8204;53.582;10.080;2022-08-07T13:17:35;102237.41;;;24.68;84.26
16194;BME280;8204;53.582;10.080;2022-08-07T13:20:09;102235.34;;;24.63;81.94
16194;BME280;8204;53.582;10.080;2022-08-07T13:22:42;102228.13;;;24.64;84.19
16194;BME280;8204;53.582;10.080;2022-08-07T13:25:14;102231.19;;;24.67;84.02
16194;BME280;8204;53.582;10.080;2022-08-07T13:27:49;102227.88;;;24.72;83.88
16194;BME280;8204;53.582;10.080;2022-08-07T13:30:16;102215.41;;;24.90;85.34
16194;BME280;8204;53.582;10.080;2022-08-07T13:32:49;102213.00;;;25.06;83.09
16194;BME280;8204;53.582;10.080;2022-08-07T13:35:23;102211.09;;;25.44;82.31
16194;BME280;8204;53.582;10.080;2022-08-07T13:37:55;102203.28;;;25.85;82.78
16194;BME280;8204;53.582;10.080;2022-08-07T13:40:26;102211.63;;;25.95;81.54
16194;BME280;8204;53.582;10.080;2022-08-07T13:42:56;102218.94;;;26.06;78.35
16194;BME280;8204;53.582;10.080;2022-08-07T13:45:24;102211.72;;;26.06;78.37
16194;BME280;8204;53.582;10.080;2022-08-07T13:47:55;102210.97;;;25.99;79.25
16194;BME280;8204;53.582;10.080;2022-08-07T13:50:23;102211.19;;;25.98;79.96
16194;BME280;8204;53.582;10.080;2022-08-07T13:52:52;102207.38;;;25.87;80.04
16194;BME280;8204;53.582;10.080;2022-08-07T13:55:21;102209.31;;;25.98;80.13
16194;BME280;8204;53.582;10.080;2022-08-07T13:57:51;102201.72;;;26.13;80.25
16194;BME280;8204;53.582;10.080;2022-08-07T14:00:18;102191.88;;;26.07;76.67
16194;BME280;8204;53.582;10.080;2022-08-07T14:02:47;102194.97;;;26.22;78.36
16194;BME280;8204;53.582;10.080;2022-08-07T14:05:20;102199.81;;;26.32;77.33
16194;BME280;8204;53.582;10.080;2022-08-07T14:07:48;102182.41;;;26.34;74.59
16194;BME280;8204;53.582;10.080;2022-08-07T14:10:16;102184.81;;;26.42;76.60
16194;BME280;8204;53.582;10.080;2022-08-07T14:12:47;102191.94;;;26.66;73.66
16194;BME280;8204;53.582;10.080;2022-08-07T14:15:19;102196.34;;;26.90;72.23
16194;BME280;8204;53.582;10.080;2022-08-07T14:17:53;102178.28;;;27.20;72.97
16194;BME280;8204;53.582;10.080;2022-08-07T14:20:26;102182.97;;;27.24;71.29
16194;BME280;8204;53.582;10.080;2022-08-07T14:23:00;102183.22;;;27.45;70.75
16194;BME280;8204;53.582;10.080;2022-08-07T14:25:30;102183.72;;;27.65;68.76
16194;BME280;8204;53.582;10.080;2022-08-07T14:28:02;102193.19;;;27.56;64.55
16194;BME280;8204;53.582;10.080;2022-08-07T14:30:31;102175.75;;;27.59;64.61
16194;BME280;8204;53.582;10.080;2022-08-07T14:32:59;102182.16;;;27.46;65.89
16194;BME280;8204;53.582;10.080;2022-08-07T14:35:30;102178.31;;;27.42;67.52
16194;BME280;8204;53.582;10.080;2022-08-07T14:37:58;102176.91;;;27.51;67.60
16194;BME280;8204;53.582;10.080;2022-08-07T14:40:27;102174.59;;;27.66;67.84
16194;BME280;8204;53.582;10.080;2022-08-07T14:42:55;102160.75;;;27.74;67.29
16194;BME280;8204;53.582;10.080;2022-08-07T14:45:26;102162.25;;;27.82;66.50
16194;BME280;8204;53.582;10.080;2022-08-07T14:47:55;102159.91;;;27.97;66.95
16194;BME280;8204;53.582;10.080;2022-08-07T14:50:23;102168.31;;;28.23;65.20
16194;BME280;8204;53.582;10.080;2022-08-07T14:52:54;102154.25;;;28.49;65.80
16194;BME280;8204;53.582;10.080;2022-08-07T14:55:26;102151.09;;;28.40;63.78
16194;BME280;8204;53.582;10.080;2022-08-07T14:57:56;102151.28;;;28.50;63.83
16194;BME280;8204;53.582;10.080;2022-08-07T15:00:27;102153.41;;;28.48;65.21
16194;BME280;8204;53.582;10.080;2022-08-07T15:02:55;102152.22;;;28.28;64.84
16194;BME280;8204;53.582;10.080;2022-08-07T15:05:23;102156.47;;;28.12;64.86
16194;BME280;8204;53.582;10.080;2022-08-07T15:07:52;102149.78;;;28.15;66.82
16194;BME280;8204;53.582;10.080;2022-08-07T15:10:22;102147.00;;;28.38;69.21
16194;BME280;8204;53.582;10.080;2022-08-07T15:12:53;102149.28;;;28.18;65.42
16194;BME280;8204;53.582;10.080;2022-08-07T15:15:24;102153.44;;;28.09;66.34
16194;BME280;8204;53.582;10.080;2022-08-07T15:17:57;102152.78;;;28.30;68.06
16194;BME280;8204;53.582;10.080;2022-08-07T15:20:29;102144.50;;;28.48;68.04
16194;BME280;8204;53.582;10.080;2022-08-07T15:23:00;102151.28;;;28.50;66.84
16194;BME280;8204;53.582;10.080;2022-08-07T15:25:31;102153.22;;;28.38;66.03
16194;BME280;8204;53.582;10.080;2022-08-07T15:28:00;102149.44;;;28.11;65.49
16194;BME280;8204;53.582;10.080;2022-08-07T15:30:28;102135.59;;;28.08;68.68
16194;BME280;8204;53.582;10.080;2022-08-07T15:32:56;102134.06;;;28.23;68.84
16194;BME280;8204;53.582;10.080;2022-08-07T15:35:26;102138.28;;;28.47;66.49
16194;BME280;8204;53.582;10.080;2022-08-07T15:37:56;102127.03;;;28.67;65.05
16194;BME280;8204;53.582;10.080;2022-08-07T15:40:27;102130.44;;;28.90;64.48
16194;BME280;8204;53.582;10.080;2022-08-07T15:42:55;102126.91;;;28.89;63.22
16194;BME280;8204;53.582;10.080;2022-08-07T15:45:32;102122.56;;;29.21;63.38
16194;BME280;8204;53.582;10.080;2022-08-07T15:48:02;102123.88;;;29.35;61.50
16194;BME280;8204;53.582;10.080;2022-08-07T15:50:32;102127.31;;;29.31;61.45
16194;BME280;8204;53.582;10.080;2022-08-07T15:53:02;102113.50;;;29.27;60.98
16194;BME280;8204;53.582;10.080;2022-08-07T15:55:32;102119.38;;;29.41;60.93
16194;BME280;8204;53.582;10.080;2022-08-07T15:58:01;102103.25;;;29.46;60.84
16194;BME280;8204;53.582;10.080;2022-08-07T16:00:30;102101.91;;;29.48;60.98
16194;BME280;8204;53.582;10.080;2022-08-07T16:02:57;102105.16;;;29.66;62.12
16194;BME280;8204;53.582;10.080;2022-08-07T16:05:26;102105.41;;;30.08;62.85
16194;BME280;8204;53.582;10.080;2022-08-07T16:07:58;102103.84;;;30.12;60.10
16194;BME280;8204;53.582;10.080;2022-08-07T16:10:31;102105.97;;;30.10;61.97
16194;BME280;8204;53.582;10.080;2022-08-07T16:13:24;102098.44;;;30.12;61.10
16194;BME280;8204;53.582;10.080;2022-08-07T16:16:01;102093.59;;;30.40;62.20
16194;BME280;8204;53.582;10.080;2022-08-07T16:18:41;102090.13;;;30.44;60.25
16194;BME280;8204;53.582;10.080;2022-08-07T16:21:18;102086.75;;;30.33;59.51
16194;BME280;8204;53.582;10.080;2022-08-07T16:23:54;102089.31;;;30.18;61.03
16194;BME280;8204;53.582;10.080;2022-08-07T16:26:37;102090.16;;;30.23;62.46
16194;BME280;8204;53.582;10.080;2022-08-07T16:29:14;102083.38;;;30.21;61.46
16194;BME280;8204;53.582;10.080;2022-08-07T16:31:47;102080.06;;;30.40;61.29
16194;BME280;8204;53.582;10.080;2022-08-07T16:34:23;102079.69;;;30.53;60.24
16194;BME280;8204;53.582;10.080;2022-08-07T16:37:17;102083.38;;;30.73;60.59
16194;BME280;8204;53.582;10.080;2022-08-07T16:40:06;102082.88;;;30.24;60.14
16194;BME280;8204;53.582;10.080;2022-08-07T16:42:52;102086.47;;;30.55;60.23
16194;BME280;8204;53.582;10.080;2022-08-07T16:45:44;102088.06;;;30.51;60.99
16194;BME280;8204;53.582;10.080;2022-08-07T16:48:40;102091.59;;;30.83;61.41
16194;BME280;8204;53.582;10.080;2022-08-07T16:51:18;102098.53;;;30.74;59.90
16194;BME280;8204;53.582;10.080;2022-08-07T16:57:00;102094.91;;;30.95;60.07
16194;BME280;8204;53.582;10.080;2022-08-07T16:59:45;102098.34;;;30.81;58.71
16194;BME280;8204;53.582;10.080;2022-08-07T17:02:27;102096.16;;;30.83;60.13
16194;BME280;8204;53.582;10.080;2022-08-07T17:05:08;102091.41;;;30.63;60.42
16194;BME280;8204;53.582;10.080;2022-08-07T17:07:45;102097.47;;;30.75;60.59
16194;BME280;8204;53.582;10.080;2022-08-07T17:10:17;102094.81;;;30.85;59.44
16194;BME280;8204;53.582;10.080;2022-08-07T17:12:49;102089.56;;;31.00;58.84
16194;BME280;8204;53.582;10.080;2022-08-07T17:15:25;102096.47;;;31.17;58.91
16194;BME280;8204;53.582;10.080;2022-08-07T17:18:02;102097.63;;;30.95;59.00
16194;BME280;8204;53.582;10.080;2022-08-07T17:20:35;102098.34;;;30.81;58.34
16194;BME280;8204;53.582;10.080;2022-08-07T17:23:15;102093.56;;;30.61;58.83
16194;BME280;8204;53.582;10.080;2022-08-07T17:25:52;102098.09;;;30.56;58.89
16194;BME280;8204;53.582;10.080;2022-08-07T17:28:23;102094.06;;;30.58;59.42
16194;BME280;8204;53.582;10.080;2022-08-07T17:31:01;102102.16;;;30.58;58.76
16194;BME280;8204;53.582;10.080;2022-08-07T17:33:32;102097.31;;;30.08;59.50
16194;BME280;8204;53.582;10.080;2022-08-07T17:36:06;102102.53;;;29.93;61.42
16194;BME280;8204;53.582;10.080;2022-08-07T17:38:48;102098.75;;;29.72;61.93
16194;BME280;8204;53.582;10.080;2022-08-07T17:41:17;102099.69;;;29.07;61.53
16194;BME280;8204;53.582;10.080;2022-08-07T17:43:51;102102.38;;;28.75;62.25
16194;BME280;8204;53.582;10.080;2022-08-07T17:46:28;102103.03;;;28.37;64.12
16194;BME280;8204;53.582;10.080;2022-08-07T17:49:07;102107.75;;;27.91;65.52
16194;BME280;8204;53.582;10.080;2022-08-07T17:51:36;102097.03;;;27.68;65.90
16194;BME280;8204;53.582;10.080;2022-08-07T17:54:11;102100.91;;;27.49;67.74
16194;BME280;8204;53.582;10.080;2022-08-07T17:56:44;102094.03;;;27.31;67.55
16194;BME280;8204;53.582;10.080;2022-08-07T17:59:13;102096.13;;;27.17;67.70
16194;BME280;8204;53.582;10.080;2022-08-07T18:01:49;102094.38;;;27.11;68.38
16194;BME280;8204;53.582;10.080;2022-08-07T18:04:27;102086.63;;;26.92;69.68
16194;BME280;8204;53.582;10.080;2022-08-07T18:06:58;102097.25;;;26.75;70.33
16194;BME280;8204;53.582;10.080;2022-08-07T18:09:26;102092.44;;;26.66;71.84
16194;BME280;8204;53.582;10.080;2022-08-07T18:12:02;102090.66;;;26.60;72.35
16194;BME280;8204;53.582;10.080;2022-08-07T18:14:38;102093.69;;;26.52;72.92
16194;BME280;8204;53.582;10.080;2022-08-07T18:17:27;102098.78;;;26.42;73.40
16194;BME280;8204;53.582;10.080;2022-08-07T18:19:58;102105.97;;;26.30;74.44
16194;BME280;8204;53.582;10.080;2022-08-07T18:22:31;102097.84;;;26.19;75.64
16194;BME280;8204;53.582;10.080;2022-08-07T18:25:00;102100.03;;;26.10;76.69
16194;BME280;8204;53.582;10.080;2022-08-07T18:27:36;102106.78;;;26.01;77.26
16194;BME280;8204;53.582;10.080;2022-08-07T18:30:13;102113.00;;;25.84;78.29
16194;BME280;8204;53.582;10.080;2022-08-07T18:33:15;102116.19;;;25.75;78.69
16194;BME280;8204;53.582;10.080;2022-08-07T18:36:01;102112.75;;;25.68;79.52
16194;BME280;8204;53.582;10.080;2022-08-07T18:38:40;102116.75;;;25.59;79.65
16194;BME280;8204;53.582;10.080;2022-08-07T18:41:13;102117.50;;;25.48;79.95
16194;BME280;8204;53.582;10.080;2022-08-07T18:43:52;102116.13;;;25.39;81.55
16194;BME280;8204;53.582;10.080;2022-08-07T18:46:22;102122.38;;;25.33;81.31
16194;BME280;8204;53.582;10.080;2022-08-07T18:48:59;102122.81;;;25.30;82.01
16194;BME280;8204;53.582;10.080;2022-08-07T18:51:30;102121.03;;;25.24;82.95
16194;BME280;8204;53.582;10.080;2022-08-07T18:54:13;102125.84;;;25.15;82.83
16194;BME280;8204;53.582;10.080;2022-08-07T18:56:46;102125.94;;;25.09;84.87
16194;BME280;8204;53.582;10.080;2022-08-07T18:59:35;102128.84;;;25.01;85.73
16194;BME280;8204;53.582;10.080;2022-08-07T19:02:11;102130.16;;;24.92;87.00
16194;BME280;8204;53.582;10.080;2022-08-07T19:04:47;102138.03;;;24.87;88.91
16194;BME280;8204;53.582;10.080;2022-08-07T19:07:30;102137.25;;;24.80;89.11
16194;BME280;8204;53.582;10.080;2022-08-07T19:10:02;102137.72;;;24.77;89.82
16194;BME280;8204;53.582;10.080;2022-08-07T19:12:52;102145.16;;;24.69;90.14
16194;BME280;8204;53.582;10.080;2022-08-07T19:15:25;102146.22;;;24.68;91.68
16194;BME280;8204;53.582;10.080;2022-08-07T19:18:05;102149.97;;;24.60;92.24
16194;BME280;8204;53.582;10.080;2022-08-07T19:20:42;102147.75;;;24.51;92.67
16194;BME280;8204;53.582;10.080;2022-08-07T19:23:16;102155.41;;;24.47;94.03
16194;BME280;8204;53.582;10.080;2022-08-07T19:25:48;102158.31;;;24.39;95.49
16194;BME280;8204;53.582;10.080;2022-08-07T19:28:21;102159.78;;;24.35;95.26
16194;BME280;8204;53.582;10.080;2022-08-07T19:30:50;102155.75;;;24.20;96.15
16194;BME280;8204;53.582;10.080;2022-08-07T19:33:19;102161.94;;;24.14;96.87
16194;BME280;8204;53.582;10.080;2022-08-07T19:35:52;102166.72;;;24.06;97.66
16194;BME280;8204;53.582;10.080;2022-08-07T19:38:22;102167.75;;;23.98;98.52
16194;BME280;8204;53.582;10.080;2022-08-07T19:40:50;102165.53;;;23.89;99.12
16194;BME280;8204;53.582;10.080;2022-08-07T19:43:23;102174.41;;;23.83;100.00
16194;BME280;8204;53.582;10.080;2022-08-07T19:45:51;102163.09;;;23.74;100.00
16194;BME280;8204;53.582;10.080;2022-08-07T19:48:26;102164.94;;;23.67;100.00
16194;BME280;8204;53.582;10.080;2022-08-07T19:50:58;102165.38;;;23.52;100.00
16194;BME280;8204;53.582;10.080;2022-08-07T19:53:25;102160.44;;;23.42;100.00
16194;BME280;8204;53.582;10.080;2022-08-07T19:55:53;102173.00;;;23.35;100.00
16194;BME280;8204;53.582;10.080;2022-08-07T19:58:21;102166.03;;;23.28;100.00
16194;BME280;8204;53.582;10.080;2022-08-07T20:00:49;102169.53;;;23.22;100.00
16194;BME280;8204;53.582;10.080;2022-08-07T20:03:19;102172.59;;;23.12;100.00
16194;BME280;8204;53.582;10.080;2022-08-07T20:05:59;102167.00;;;23.01;100.00
16194;BME280;8204;53.582;10.080;2022-08-07T20:08:27;102170.09;;;22.91;100.00
16194;BME280;8204;53.582;10.080;2022-08-07T20:10:57;102176.66;;;22.76;100.00
16194;BME280;8204;53.582;10.080;2022-08-07T20:13:30;102176.03;;;22.68;100.00
16194;BME280;8204;53.582;10.080;2022-08-07T20:15:59;102171.06;;;22.58;100.00
16194;BME280;8204;53.582;10.080;2022-08-07T20:18:28;102169.75;;;22.41;100.00
16194;BME280;8204;53.582;10.080;2022-08-07T20:20:57;102166.66;;;22.38;100.00
16194;BME280;8204;53.582;10.080;2022-08-07T20:23:28;102172.19;;;22.30;100.00
16194;BME280;8204;53.582;10.080;2022-08-07T20:26:01;102175.91;;;22.29;100.00
16194;BME280;8204;53.582;10.080;2022-08-07T20:28:29;102182.41;;;22.20;100.00
16194;BME280;8204;53.582;10.080;2022-08-07T20:30:57;102180.72;;;22.12;100.00
16194;BME280;8204;53.582;10.080;2022-08-07T20:33:27;102184.38;;;22.05;100.00
16194;BME280;8204;53.582;10.080;2022-08-07T20:35:59;102177.31;;;21.91;100.00
16194;BME280;8204;53.582;10.080;2022-08-07T20:38:29;102176.06;;;21.87;100.00
16194;BME280;8204;53.582;10.080;2022-08-07T20:40:58;102178.53;;;21.82;100.00
16194;BME280;8204;53.582;10.080;2022-08-07T20:43:28;102178.66;;;21.74;100.00
16194;BME280;8204;53.582;10.080;2022-08-07T20:45:56;102174.75;;;21.70;100.00
16194;BME280;8204;53.582;10.080;2022-08-07T20:48:24;102171.00;;;21.65;100.00
16194;BME280;8204;53.582;10.080;2022-08-07T20:50:53;102175.91;;;21.61;100.00
16194;BME280;8204;53.582;10.080;2022-08-07T20:53:22;102177.34;;;21.57;100.00
16194;BME280;8204;53.582;10.080;2022-08-07T20:55:51;102171.16;;;21.57;100.00
16194;BME280;8204;53.582;10.080;2022-08-07T20:58:24;102172.16;;;21.56;100.00
16194;BME280;8204;53.582;10.080;2022-08-07T21:00:54;102166.84;;;21.56;100.00
16194;BME280;8204;53.582;10.080;2022-08-07T21:03:26;102169.59;;;21.41;100.00
16194;BME280;8204;53.582;10.080;2022-08-07T21:05:57;102153.91;;;21.32;100.00
16194;BME280;8204;53.582;10.080;2022-08-07T21:08:29;102162.63;;;21.20;100.00
16194;BME280;8204;53.582;10.080;2022-08-07T21:10:58;102163.81;;;21.11;100.00
16194;BME280;8204;53.582;10.080;2022-08-07T21:13:25;102156.59;;;21.05;100.00
16194;BME280;8204;53.582;10.080;2022-08-07T21:15:58;102163.50;;;20.99;100.00
16194;BME280;8204;53.582;10.080;2022-08-07T21:18:27;102149.47;;;20.91;100.00
16194;BME280;8204;53.582;10.080;2022-08-07T21:20:55;102158.84;;;20.87;100.00
16194;BME280;8204;53.582;10.080;2022-08-07T21:23:28;102153.09;;;20.83;100.00
16194;BME280;8204;53.582;10.080;2022-08-07T21:26:07;102150.69;;;20.74;100.00
16194;BME280;8204;53.582;10.080;2022-08-07T21:28:44;102145.13;;;20.69;100.00
16194;BME280;8204;53.582;10.080;2022-08-07T21:31:19;102142.84;;;20.66;100.00
16194;BME280;8204;53.582;10.080;2022-08-07T21:33:50;102153.22;;;20.61;100.00
16194;BME280;8204;53.582;10.080;2022-08-07T21:36:23;102153.63;;;20.58;100.00
16194;BME280;8204;53.582;10.080;2022-08-07T21:39:02;102149.97;;;20.45;100.00
16194;BME280;8204;53.582;10.080;2022-08-07T21:41:35;102153.59;;;20.37;100.00
16194;BME280;8204;53.582;10.080;2022-08-07T21:44:07;102156.25;;;20.37;100.00
16194;BME280;8204;53.582;10.080;2022-08-07T21:46:40;102155.25;;;20.38;100.00
16194;BME280;8204;53.582;10.080;2022-08-07T21:49:10;102167.56;;;20.39;100.00